sensor_id;sensor_type;location;lat;lon;timestamp;P1;durP1;ratioP1;P2;durP2;ratioP2
18194;SDS011;9223;50.988;3.162;2023-10-13T00:01:48;4.82;;;1.80;;
18194;SDS011;9223;50.988;3.162;2023-10-13T00:07:55;5.18;;;2.25;;
18194;SDS011;9223;50.988;3.162;2023-10-13T00:14:02;4.68;;;1.70;;
18194;SDS011;9223;50.988;3.162;2023-10-13T00:20:06;2.75;;;1.77;;
18194;SDS011;9223;50.988;3.162;2023-10-13T00:26:19;3.97;;;1.73;;
18194;SDS011;9223;50.988;3.162;2023-10-13T00:32:25;6.05;;;2.22;;
18194;SDS011;9223;50.988;3.162;2023-10-13T00:38:31;5.47;;;1.98;;
18194;SDS011;9223;50.988;3.162;2023-10-13T00:44:37;4.32;;;2.08;;
18194;SDS011;9223;50.988;3.162;2023-10-13T00:50:44;3.58;;;2.28;;
18194;SDS011;9223;50.988;3.162;2023-10-13T00:56:48;4.88;;;2.40;;
18194;SDS011;9223;50.988;3.162;2023-10-13T01:03:00;3.83;;;2.40;;
18194;SDS011;9223;50.988;3.162;2023-10-13T01:09:09;5.05;;;2.20;;
18194;SDS011;9223;50.988;3.162;2023-10-13T01:15:18;4.63;;;2.25;;
18194;SDS011;9223;50.988;3.162;2023-10-13T01:21:25;5.07;;;2.38;;
18194;SDS011;9223;50.988;3.162;2023-10-13T01:27:31;3.40;;;2.28;;
18194;SDS011;9223;50.988;3.162;2023-10-13T01:33:34;3.17;;;1.83;;
18194;SDS011;9223;50.988;3.162;2023-10-13T01:39:38;4.90;;;2.20;;
18194;SDS011;9223;50.988;3.162;2023-10-13T01:45:43;4.60;;;3.00;;
18194;SDS011;9223;50.988;3.162;2023-10-13T01:51:51;4.50;;;2.78;;
18194;SDS011;9223;50.988;3.162;2023-10-13T01:57:55;4.63;;;3.67;;
18194;SDS011;9223;50.988;3.162;2023-10-13T02:04:00;5.75;;;3.47;;
18194;SDS011;9223;50.988;3.162;2023-10-13T02:10:05;6.68;;;3.75;;
18194;SDS011;9223;50.988;3.162;2023-10-13T02:16:13;9.35;;;6.20;;
18194;SDS011;9223;50.988;3.162;2023-10-13T02:22:24;8.60;;;5.35;;
18194;SDS011;9223;50.988;3.162;2023-10-13T02:28:31;5.13;;;3.55;;
18194;SDS011;9223;50.988;3.162;2023-10-13T02:34:36;2.70;;;2.45;;
18194;SDS011;9223;50.988;3.162;2023-10-13T02:40:46;8.40;;;4.40;;
18194;SDS011;9223;50.988;3.162;2023-10-13T02:46:50;4.72;;;2.97;;
18194;SDS011;9223;50.988;3.162;2023-10-13T02:52:53;4.05;;;3.30;;
18194;SDS011;9223;50.988;3.162;2023-10-13T02:58:58;4.57;;;3.80;;
18194;SDS011;9223;50.988;3.162;2023-10-13T03:05:07;5.20;;;2.90;;
18194;SDS011;9223;50.988;3.162;2023-10-13T03:11:11;4.07;;;2.97;;
18194;SDS011;9223;50.988;3.162;2023-10-13T03:17:16;5.32;;;3.50;;
18194;SDS011;9223;50.988;3.162;2023-10-13T03:23:24;4.43;;;3.63;;
18194;SDS011;9223;50.988;3.162;2023-10-13T03:29:27;6.05;;;4.13;;
18194;SDS011;9223;50.988;3.162;2023-10-13T03:35:34;4.43;;;3.38;;
18194;SDS011;9223;50.988;3.162;2023-10-13T03:41:42;4.63;;;3.05;;
18194;SDS011;9223;50.988;3.162;2023-10-13T03:47:47;4.90;;;2.58;;
18194;SDS011;9223;50.988;3.162;2023-10-13T03:53:54;6.22;;;4.10;;
18194;SDS011;9223;50.988;3.162;2023-10-13T03:59:58;8.25;;;5.25;;
18194;SDS011;9223;50.988;3.162;2023-10-13T04:06:09;3.50;;;2.83;;
18194;SDS011;9223;50.988;3.162;2023-10-13T04:12:19;7.07;;;4.13;;
18194;SDS011;9223;50.988;3.162;2023-10-13T04:18:43;10.18;;;4.68;;
18194;SDS011;9223;50.988;3.162;2023-10-13T04:25:11;9.32;;;4.97;;
18194;SDS011;9223;50.988;3.162;2023-10-13T04:31:30;6.93;;;5.05;;
18194;SDS011;9223;50.988;3.162;2023-10-13T04:37:57;7.35;;;5.85;;
18194;SDS011;9223;50.988;3.162;2023-10-13T04:44:03;7.78;;;5.85;;
18194;SDS011;9223;50.988;3.162;2023-10-13T04:50:26;7.47;;;5.07;;
18194;SDS011;9223;50.988;3.162;2023-10-13T04:56:36;4.95;;;3.97;;
18194;SDS011;9223;50.988;3.162;2023-10-13T05:03:05;6.72;;;4.50;;
18194;SDS011;9223;50.988;3.162;2023-10-13T05:09:27;6.65;;;3.50;;
18194;SDS011;9223;50.988;3.162;2023-10-13T05:15:50;6.82;;;4.22;;
18194;SDS011;9223;50.988;3.162;2023-10-13T05:22:12;8.32;;;4.15;;
18194;SDS011;9223;50.988;3.162;2023-10-13T05:28:34;11.43;;;4.80;;
18194;SDS011;9223;50.988;3.162;2023-10-13T05:34:55;8.55;;;4.13;;
18194;SDS011;9223;50.988;3.162;2023-10-13T05:41:16;6.50;;;3.80;;
18194;SDS011;9223;50.988;3.162;2023-10-13T05:47:39;6.18;;;3.17;;
18194;SDS011;9223;50.988;3.162;2023-10-13T05:53:52;8.52;;;3.50;;
18194;SDS011;9223;50.988;3.162;2023-10-13T06:00:19;9.43;;;3.75;;
18194;SDS011;9223;50.988;3.162;2023-10-13T06:06:41;9.95;;;4.28;;
18194;SDS011;9223;50.988;3.162;2023-10-13T06:13:03;8.00;;;3.70;;
18194;SDS011;9223;50.988;3.162;2023-10-13T06:19:24;5.68;;;3.40;;
18194;SDS011;9223;50.988;3.162;2023-10-13T06:25:51;6.03;;;3.17;;
18194;SDS011;9223;50.988;3.162;2023-10-13T06:32:14;7.47;;;3.63;;
18194;SDS011;9223;50.988;3.162;2023-10-13T06:38:18;7.35;;;3.85;;
18194;SDS011;9223;50.988;3.162;2023-10-13T06:44:24;7.63;;;3.80;;
18194;SDS011;9223;50.988;3.162;2023-10-13T06:50:27;8.85;;;3.55;;
18194;SDS011;9223;50.988;3.162;2023-10-13T06:56:31;7.13;;;3.50;;
18194;SDS011;9223;50.988;3.162;2023-10-13T07:02:42;4.97;;;2.88;;
18194;SDS011;9223;50.988;3.162;2023-10-13T07:08:46;7.53;;;3.63;;
18194;SDS011;9223;50.988;3.162;2023-10-13T07:14:53;7.90;;;3.70;;
18194;SDS011;9223;50.988;3.162;2023-10-13T07:21:14;8.37;;;4.00;;
18194;SDS011;9223;50.988;3.162;2023-10-13T07:27:17;7.38;;;3.60;;
18194;SDS011;9223;50.988;3.162;2023-10-13T07:33:25;10.55;;;4.35;;
18194;SDS011;9223;50.988;3.162;2023-10-13T07:39:31;6.65;;;3.17;;
18194;SDS011;9223;50.988;3.162;2023-10-13T07:45:37;12.02;;;3.72;;
18194;SDS011;9223;50.988;3.162;2023-10-13T07:51:42;6.60;;;3.25;;
18194;SDS011;9223;50.988;3.162;2023-10-13T07:57:48;9.45;;;3.60;;
18194;SDS011;9223;50.988;3.162;2023-10-13T08:04:00;6.40;;;3.40;;
18194;SDS011;9223;50.988;3.162;2023-10-13T08:10:13;9.00;;;3.50;;
18194;SDS011;9223;50.988;3.162;2023-10-13T08:16:19;9.00;;;4.65;;
18194;SDS011;9223;50.988;3.162;2023-10-13T08:22:24;8.27;;;4.25;;
18194;SDS011;9223;50.988;3.162;2023-10-13T08:28:28;9.07;;;4.17;;
18194;SDS011;9223;50.988;3.162;2023-10-13T08:35:00;7.35;;;3.75;;
18194;SDS011;9223;50.988;3.162;2023-10-13T08:41:24;7.55;;;4.10;;
18194;SDS011;9223;50.988;3.162;2023-10-13T08:47:40;8.30;;;3.90;;
18194;SDS011;9223;50.988;3.162;2023-10-13T08:53:56;7.20;;;3.72;;
18194;SDS011;9223;50.988;3.162;2023-10-13T09:00:10;9.18;;;4.05;;
18194;SDS011;9223;50.988;3.162;2023-10-13T09:06:30;9.00;;;4.70;;
18194;SDS011;9223;50.988;3.162;2023-10-13T09:12:39;10.02;;;5.60;;
18194;SDS011;9223;50.988;3.162;2023-10-13T09:19:02;8.80;;;4.75;;
18194;SDS011;9223;50.988;3.162;2023-10-13T09:25:06;7.43;;;4.47;;
18194;SDS011;9223;50.988;3.162;2023-10-13T09:31:21;6.78;;;4.15;;
18194;SDS011;9223;50.988;3.162;2023-10-13T09:37:28;11.48;;;4.88;;
18194;SDS011;9223;50.988;3.162;2023-10-13T09:43:34;7.43;;;4.30;;
18194;SDS011;9223;50.988;3.162;2023-10-13T09:49:44;6.95;;;4.10;;
18194;SDS011;9223;50.988;3.162;2023-10-13T09:55:52;6.63;;;4.22;;
18194;SDS011;9223;50.988;3.162;2023-10-13T10:02:03;8.98;;;4.28;;
18194;SDS011;9223;50.988;3.162;2023-10-13T10:08:22;7.50;;;4.82;;
18194;SDS011;9223;50.988;3.162;2023-10-13T10:14:41;8.77;;;4.53;;
18194;SDS011;9223;50.988;3.162;2023-10-13T10:20:49;7.10;;;4.30;;
18194;SDS011;9223;50.988;3.162;2023-10-13T10:26:57;8.65;;;4.20;;
18194;SDS011;9223;50.988;3.162;2023-10-13T10:33:01;10.57;;;5.15;;
18194;SDS011;9223;50.988;3.162;2023-10-13T10:39:13;6.78;;;4.20;;
18194;SDS011;9223;50.988;3.162;2023-10-13T10:45:20;7.82;;;5.32;;
18194;SDS011;9223;50.988;3.162;2023-10-13T10:51:24;8.85;;;4.78;;
18194;SDS011;9223;50.988;3.162;2023-10-13T10:57:32;10.20;;;5.25;;
18194;SDS011;9223;50.988;3.162;2023-10-13T11:03:40;8.98;;;4.55;;
18194;SDS011;9223;50.988;3.162;2023-10-13T11:09:44;9.27;;;5.50;;
18194;SDS011;9223;50.988;3.162;2023-10-13T11:15:48;7.90;;;4.40;;
18194;SDS011;9223;50.988;3.162;2023-10-13T11:21:54;12.40;;;5.10;;
18194;SDS011;9223;50.988;3.162;2023-10-13T11:27:58;10.15;;;5.05;;
18194;SDS011;9223;50.988;3.162;2023-10-13T11:34:19;9.50;;;5.50;;
18194;SDS011;9223;50.988;3.162;2023-10-13T11:40:24;10.35;;;5.45;;
18194;SDS011;9223;50.988;3.162;2023-10-13T11:46:41;10.77;;;5.50;;
18194;SDS011;9223;50.988;3.162;2023-10-13T11:52:57;11.73;;;4.72;;
18194;SDS011;9223;50.988;3.162;2023-10-13T11:59:03;7.70;;;4.70;;
18194;SDS011;9223;50.988;3.162;2023-10-13T12:05:07;7.63;;;4.45;;
18194;SDS011;9223;50.988;3.162;2023-10-13T12:11:19;7.90;;;4.25;;
18194;SDS011;9223;50.988;3.162;2023-10-13T12:17:41;9.48;;;3.95;;
18194;SDS011;9223;50.988;3.162;2023-10-13T12:23:47;9.13;;;3.85;;
18194;SDS011;9223;50.988;3.162;2023-10-13T12:29:52;7.72;;;3.90;;
18194;SDS011;9223;50.988;3.162;2023-10-13T12:36:02;7.40;;;3.13;;
18194;SDS011;9223;50.988;3.162;2023-10-13T12:42:08;5.82;;;3.50;;
18194;SDS011;9223;50.988;3.162;2023-10-13T12:48:29;4.38;;;3.13;;
18194;SDS011;9223;50.988;3.162;2023-10-13T12:54:52;7.20;;;3.00;;
18194;SDS011;9223;50.988;3.162;2023-10-13T13:01:08;8.15;;;3.17;;
18194;SDS011;9223;50.988;3.162;2023-10-13T13:07:15;7.47;;;4.13;;
18194;SDS011;9223;50.988;3.162;2023-10-13T13:13:20;8.38;;;3.65;;
18194;SDS011;9223;50.988;3.162;2023-10-13T13:19:27;6.18;;;3.65;;
18194;SDS011;9223;50.988;3.162;2023-10-13T13:25:30;8.63;;;4.00;;
18194;SDS011;9223;50.988;3.162;2023-10-13T13:31:38;7.68;;;3.85;;
18194;SDS011;9223;50.988;3.162;2023-10-13T13:37:45;9.13;;;4.70;;
18194;SDS011;9223;50.988;3.162;2023-10-13T13:43:49;9.95;;;4.40;;
18194;SDS011;9223;50.988;3.162;2023-10-13T13:49:58;10.68;;;3.97;;
18194;SDS011;9223;50.988;3.162;2023-10-13T13:56:07;9.77;;;4.88;;
18194;SDS011;9223;50.988;3.162;2023-10-13T14:02:10;11.77;;;5.20;;
18194;SDS011;9223;50.988;3.162;2023-10-13T14:08:23;12.70;;;4.80;;
18194;SDS011;9223;50.988;3.162;2023-10-13T14:14:27;10.32;;;4.18;;
18194;SDS011;9223;50.988;3.162;2023-10-13T14:20:35;8.35;;;3.85;;
18194;SDS011;9223;50.988;3.162;2023-10-13T14:26:42;12.05;;;4.25;;
18194;SDS011;9223;50.988;3.162;2023-10-13T14:32:46;8.25;;;4.40;;
18194;SDS011;9223;50.988;3.162;2023-10-13T14:38:49;8.70;;;4.22;;
18194;SDS011;9223;50.988;3.162;2023-10-13T14:44:54;11.13;;;5.40;;
18194;SDS011;9223;50.988;3.162;2023-10-13T14:50:58;11.88;;;6.10;;
18194;SDS011;9223;50.988;3.162;2023-10-13T14:57:09;10.52;;;5.78;;
18194;SDS011;9223;50.988;3.162;2023-10-13T15:03:14;10.90;;;4.60;;
18194;SDS011;9223;50.988;3.162;2023-10-13T15:09:20;11.73;;;5.00;;
18194;SDS011;9223;50.988;3.162;2023-10-13T15:15:25;8.98;;;4.85;;
18194;SDS011;9223;50.988;3.162;2023-10-13T15:21:33;10.05;;;4.90;;
18194;SDS011;9223;50.988;3.162;2023-10-13T15:27:37;6.45;;;4.07;;
18194;SDS011;9223;50.988;3.162;2023-10-13T15:33:43;7.95;;;4.20;;
18194;SDS011;9223;50.988;3.162;2023-10-13T15:39:56;8.30;;;4.33;;
18194;SDS011;9223;50.988;3.162;2023-10-13T15:46:01;8.98;;;3.60;;
18194;SDS011;9223;50.988;3.162;2023-10-13T15:52:29;13.10;;;4.82;;
18194;SDS011;9223;50.988;3.162;2023-10-13T15:58:34;8.45;;;4.22;;
18194;SDS011;9223;50.988;3.162;2023-10-13T16:04:38;10.18;;;4.68;;
18194;SDS011;9223;50.988;3.162;2023-10-13T16:10:42;9.05;;;4.68;;
18194;SDS011;9223;50.988;3.162;2023-10-13T16:16:47;8.45;;;4.55;;
18194;SDS011;9223;50.988;3.162;2023-10-13T16:22:54;7.72;;;4.55;;
18194;SDS011;9223;50.988;3.162;2023-10-13T16:28:58;9.48;;;5.30;;
18194;SDS011;9223;50.988;3.162;2023-10-13T16:35:03;7.57;;;4.32;;
18194;SDS011;9223;50.988;3.162;2023-10-13T16:41:18;8.80;;;4.50;;
18194;SDS011;9223;50.988;3.162;2023-10-13T16:47:23;8.90;;;4.57;;
18194;SDS011;9223;50.988;3.162;2023-10-13T16:53:28;10.45;;;4.78;;
18194;SDS011;9223;50.988;3.162;2023-10-13T16:59:32;10.65;;;4.88;;
18194;SDS011;9223;50.988;3.162;2023-10-13T17:05:40;9.70;;;5.90;;
18194;SDS011;9223;50.988;3.162;2023-10-13T17:11:45;11.13;;;6.13;;
18194;SDS011;9223;50.988;3.162;2023-10-13T17:17:49;11.63;;;7.30;;
18194;SDS011;9223;50.988;3.162;2023-10-13T17:23:53;13.27;;;8.02;;
18194;SDS011;9223;50.988;3.162;2023-10-13T17:29:59;12.38;;;7.95;;
18194;SDS011;9223;50.988;3.162;2023-10-13T17:36:02;12.98;;;7.82;;
18194;SDS011;9223;50.988;3.162;2023-10-13T17:42:08;12.23;;;7.70;;
18194;SDS011;9223;50.988;3.162;2023-10-13T17:48:15;14.93;;;8.43;;
18194;SDS011;9223;50.988;3.162;2023-10-13T17:54:19;14.23;;;8.35;;
18194;SDS011;9223;50.988;3.162;2023-10-13T18:00:23;11.55;;;7.45;;
18194;SDS011;9223;50.988;3.162;2023-10-13T18:06:28;10.18;;;7.35;;
18194;SDS011;9223;50.988;3.162;2023-10-13T18:12:32;15.35;;;7.60;;
18194;SDS011;9223;50.988;3.162;2023-10-13T18:18:38;9.93;;;7.45;;
18194;SDS011;9223;50.988;3.162;2023-10-13T18:24:44;14.35;;;8.43;;
18194;SDS011;9223;50.988;3.162;2023-10-13T18:30:55;13.73;;;9.88;;
18194;SDS011;9223;50.988;3.162;2023-10-13T18:36:59;15.30;;;8.73;;
18194;SDS011;9223;50.988;3.162;2023-10-13T18:43:04;12.35;;;8.40;;
18194;SDS011;9223;50.988;3.162;2023-10-13T18:49:07;13.10;;;9.82;;
18194;SDS011;9223;50.988;3.162;2023-10-13T18:55:12;12.98;;;10.43;;
18194;SDS011;9223;50.988;3.162;2023-10-13T19:01:17;14.38;;;10.20;;
18194;SDS011;9223;50.988;3.162;2023-10-13T19:07:26;14.18;;;9.20;;
18194;SDS011;9223;50.988;3.162;2023-10-13T19:13:32;16.60;;;10.30;;
18194;SDS011;9223;50.988;3.162;2023-10-13T19:19:38;14.82;;;10.38;;
18194;SDS011;9223;50.988;3.162;2023-10-13T19:25:41;16.65;;;11.40;;
18194;SDS011;9223;50.988;3.162;2023-10-13T19:31:45;17.92;;;12.13;;
18194;SDS011;9223;50.988;3.162;2023-10-13T19:37:51;20.38;;;14.10;;
18194;SDS011;9223;50.988;3.162;2023-10-13T19:43:55;22.85;;;13.98;;
18194;SDS011;9223;50.988;3.162;2023-10-13T19:50:01;17.05;;;13.82;;
18194;SDS011;9223;50.988;3.162;2023-10-13T19:56:09;23.08;;;15.18;;
18194;SDS011;9223;50.988;3.162;2023-10-13T20:02:13;17.27;;;14.23;;
18194;SDS011;9223;50.988;3.162;2023-10-13T20:08:17;20.88;;;14.77;;
18194;SDS011;9223;50.988;3.162;2023-10-13T20:14:22;18.15;;;13.95;;
18194;SDS011;9223;50.988;3.162;2023-10-13T20:20:25;21.25;;;15.45;;
18194;SDS011;9223;50.988;3.162;2023-10-13T20:26:30;18.50;;;14.70;;
18194;SDS011;9223;50.988;3.162;2023-10-13T20:32:41;21.98;;;16.13;;
18194;SDS011;9223;50.988;3.162;2023-10-13T20:38:47;17.33;;;14.73;;
18194;SDS011;9223;50.988;3.162;2023-10-13T20:44:52;18.63;;;15.27;;
18194;SDS011;9223;50.988;3.162;2023-10-13T20:50:57;15.73;;;14.10;;
18194;SDS011;9223;50.988;3.162;2023-10-13T20:57:00;17.05;;;13.93;;
18194;SDS011;9223;50.988;3.162;2023-10-13T21:03:09;19.60;;;13.85;;
18194;SDS011;9223;50.988;3.162;2023-10-13T21:09:17;18.30;;;14.70;;
18194;SDS011;9223;50.988;3.162;2023-10-13T21:15:22;17.20;;;13.57;;
18194;SDS011;9223;50.988;3.162;2023-10-13T21:21:27;15.95;;;13.10;;
18194;SDS011;9223;50.988;3.162;2023-10-13T21:27:33;15.15;;;12.43;;
18194;SDS011;9223;50.988;3.162;2023-10-13T21:33:37;16.05;;;12.02;;
18194;SDS011;9223;50.988;3.162;2023-10-13T21:39:41;17.35;;;12.30;;
18194;SDS011;9223;50.988;3.162;2023-10-13T21:45:51;14.20;;;11.25;;
18194;SDS011;9223;50.988;3.162;2023-10-13T21:51:54;10.93;;;8.90;;
18194;SDS011;9223;50.988;3.162;2023-10-13T21:57:58;12.55;;;8.27;;
18194;SDS011;9223;50.988;3.162;2023-10-13T22:04:04;10.60;;;7.22;;
18194;SDS011;9223;50.988;3.162;2023-10-13T22:10:12;8.27;;;5.88;;
18194;SDS011;9223;50.988;3.162;2023-10-13T22:16:19;7.57;;;5.95;;
18194;SDS011;9223;50.988;3.162;2023-10-13T22:22:24;1.15;;;0.73;;
18194;SDS011;9223;50.988;3.162;2023-10-13T22:28:30;0.70;;;0.50;;
18194;SDS011;9223;50.988;3.162;2023-10-13T22:34:35;0.88;;;0.43;;
18194;SDS011;9223;50.988;3.162;2023-10-13T22:40:40;2.63;;;1.17;;
18194;SDS011;9223;50.988;3.162;2023-10-13T22:46:44;2.47;;;0.70;;
18194;SDS011;9223;50.988;3.162;2023-10-13T22:52:49;2.00;;;0.52;;
18194;SDS011;9223;50.988;3.162;2023-10-13T22:58:54;2.90;;;2.42;;
18194;SDS011;9223;50.988;3.162;2023-10-13T23:04:58;5.60;;;1.30;;
18194;SDS011;9223;50.988;3.162;2023-10-13T23:11:02;2.50;;;1.45;;
18194;SDS011;9223;50.988;3.162;2023-10-13T23:17:17;4.72;;;2.47;;
18194;SDS011;9223;50.988;3.162;2023-10-13T23:23:22;5.63;;;1.85;;
18194;SDS011;9223;50.988;3.162;2023-10-13T23:29:26;5.32;;;2.25;;
18194;SDS011;9223;50.988;3.162;2023-10-13T23:35:31;3.85;;;1.80;;
18194;SDS011;9223;50.988;3.162;2023-10-13T23:41:35;4.20;;;2.00;;
18194;SDS011;9223;50.988;3.162;2023-10-13T23:47:43;4.72;;;2.03;;
18194;SDS011;9223;50.988;3.162;2023-10-13T23:53:50;7.97;;;2.00;;
18194;SDS011;9223;50.988;3.162;2023-10-13T23:59:54;5.78;;;1.90;;
